sensor_id;sensor_type;location;lat;lon;timestamp;P1;durP1;ratioP1;P2;durP2;ratioP2
8100;SDS011;4093;53.470;9.832;2023-08-17T00:01:32;4.63;;;2.25;;
8100;SDS011;4093;53.470;9.832;2023-08-17T00:04:00;3.85;;;2.45;;
8100;SDS011;4093;53.470;9.832;2023-08-17T00:06:29;6.72;;;2.67;;
8100;SDS011;4093;53.470;9.832;2023-08-17T00:08:56;3.10;;;2.38;;
8100;SDS011;4093;53.470;9.832;2023-08-17T00:11:24;4.88;;;2.90;;
8100;SDS011;4093;53.470;9.832;2023-08-17T00:13:52;6.32;;;2.80;;
8100;SDS011;4093;53.470;9.832;2023-08-17T00:16:20;9.02;;;3.17;;
8100;SDS011;4093;53.470;9.832;2023-08-17T00:18:48;8.18;;;2.63;;
8100;SDS011;4093;53.470;9.832;2023-08-17T00:21:16;3.25;;;2.38;;
8100;SDS011;4093;53.470;9.832;2023-08-17T00:23:45;4.13;;;2.42;;
8100;SDS011;4093;53.470;9.832;2023-08-17T00:26:13;6.43;;;2.70;;
8100;SDS011;4093;53.470;9.832;2023-08-17T00:28:41;4.32;;;2.60;;
8100;SDS011;4093;53.470;9.832;2023-08-17T00:31:09;5.13;;;2.78;;
8100;SDS011;4093;53.470;9.832;2023-08-17T00:33:36;4.43;;;2.55;;
8100;SDS011;4093;53.470;9.832;2023-08-17T00:36:04;6.00;;;2.50;;
8100;SDS011;4093;53.470;9.832;2023-08-17T00:38:32;4.85;;;2.22;;
8100;SDS011;4093;53.470;9.832;2023-08-17T00:41:01;3.25;;;1.95;;
8100;SDS011;4093;53.470;9.832;2023-08-17T00:43:29;5.45;;;2.08;;
8100;SDS011;4093;53.470;9.832;2023-08-17T00:45:57;5.47;;;2.75;;
8100;SDS011;4093;53.470;9.832;2023-08-17T00:48:25;4.13;;;2.47;;
8100;SDS011;4093;53.470;9.832;2023-08-17T00:50:55;7.05;;;2.65;;
8100;SDS011;4093;53.470;9.832;2023-08-17T00:53:23;6.00;;;2.20;;
8100;SDS011;4093;53.470;9.832;2023-08-17T00:55:54;5.97;;;2.40;;
8100;SDS011;4093;53.470;9.832;2023-08-17T00:58:23;7.30;;;2.67;;
8100;SDS011;4093;53.470;9.832;2023-08-17T01:00:51;8.82;;;2.67;;
8100;SDS011;4093;53.470;9.832;2023-08-17T01:03:18;5.50;;;2.30;;
8100;SDS011;4093;53.470;9.832;2023-08-17T01:05:49;5.47;;;2.55;;
8100;SDS011;4093;53.470;9.832;2023-08-17T01:08:17;4.97;;;2.40;;
8100;SDS011;4093;53.470;9.832;2023-08-17T01:10:47;5.38;;;2.40;;
8100;SDS011;4093;53.470;9.832;2023-08-17T01:13:21;5.40;;;2.20;;
8100;SDS011;4093;53.470;9.832;2023-08-17T01:15:56;5.63;;;2.45;;
8100;SDS011;4093;53.470;9.832;2023-08-17T01:18:29;5.30;;;2.70;;
8100;SDS011;4093;53.470;9.832;2023-08-17T01:20:59;8.18;;;2.72;;
8100;SDS011;4093;53.470;9.832;2023-08-17T01:23:29;7.78;;;2.75;;
8100;SDS011;4093;53.470;9.832;2023-08-17T01:25:57;5.90;;;3.05;;
8100;SDS011;4093;53.470;9.832;2023-08-17T01:28:25;4.78;;;2.95;;
8100;SDS011;4093;53.470;9.832;2023-08-17T01:30:55;4.10;;;2.75;;
8100;SDS011;4093;53.470;9.832;2023-08-17T01:33:27;4.10;;;2.60;;
8100;SDS011;4093;53.470;9.832;2023-08-17T01:36:01;4.93;;;2.90;;
8100;SDS011;4093;53.470;9.832;2023-08-17T01:38:36;6.95;;;2.90;;
8100;SDS011;4093;53.470;9.832;2023-08-17T01:41:08;5.47;;;2.80;;
8100;SDS011;4093;53.470;9.832;2023-08-17T01:43:39;8.52;;;3.10;;
8100;SDS011;4093;53.470;9.832;2023-08-17T01:46:13;9.65;;;2.90;;
8100;SDS011;4093;53.470;9.832;2023-08-17T01:48:42;3.58;;;2.83;;
8100;SDS011;4093;53.470;9.832;2023-08-17T01:51:10;4.82;;;2.65;;
8100;SDS011;4093;53.470;9.832;2023-08-17T01:53:40;4.25;;;2.35;;
8100;SDS011;4093;53.470;9.832;2023-08-17T01:56:08;6.18;;;2.58;;
8100;SDS011;4093;53.470;9.832;2023-08-17T01:58:36;5.60;;;2.83;;
8100;SDS011;4093;53.470;9.832;2023-08-17T02:01:03;6.45;;;2.78;;
8100;SDS011;4093;53.470;9.832;2023-08-17T02:03:31;3.88;;;2.63;;
8100;SDS011;4093;53.470;9.832;2023-08-17T02:05:59;7.22;;;2.60;;
8100;SDS011;4093;53.470;9.832;2023-08-17T02:08:26;4.10;;;2.45;;
8100;SDS011;4093;53.470;9.832;2023-08-17T02:10:55;5.53;;;2.45;;
8100;SDS011;4093;53.470;9.832;2023-08-17T02:13:23;5.90;;;2.63;;
8100;SDS011;4093;53.470;9.832;2023-08-17T02:15:53;6.72;;;2.45;;
8100;SDS011;4093;53.470;9.832;2023-08-17T02:18:21;7.47;;;2.67;;
8100;SDS011;4093;53.470;9.832;2023-08-17T02:20:48;7.78;;;2.90;;
8100;SDS011;4093;53.470;9.832;2023-08-17T02:23:16;6.90;;;2.70;;
8100;SDS011;4093;53.470;9.832;2023-08-17T02:25:44;4.95;;;2.53;;
8100;SDS011;4093;53.470;9.832;2023-08-17T02:28:13;6.20;;;2.70;;
8100;SDS011;4093;53.470;9.832;2023-08-17T02:30:40;4.32;;;2.63;;
8100;SDS011;4093;53.470;9.832;2023-08-17T02:33:08;3.55;;;2.38;;
8100;SDS011;4093;53.470;9.832;2023-08-17T02:35:36;6.35;;;2.85;;
8100;SDS011;4093;53.470;9.832;2023-08-17T02:38:04;6.88;;;2.92;;
8100;SDS011;4093;53.470;9.832;2023-08-17T02:40:31;4.25;;;2.95;;
8100;SDS011;4093;53.470;9.832;2023-08-17T02:42:59;4.40;;;2.55;;
8100;SDS011;4093;53.470;9.832;2023-08-17T02:45:28;5.97;;;2.60;;
8100;SDS011;4093;53.470;9.832;2023-08-17T02:47:56;4.78;;;2.15;;
8100;SDS011;4093;53.470;9.832;2023-08-17T02:50:24;5.05;;;2.65;;
8100;SDS011;4093;53.470;9.832;2023-08-17T02:52:51;8.18;;;2.78;;
8100;SDS011;4093;53.470;9.832;2023-08-17T02:55:19;4.93;;;2.60;;
8100;SDS011;4093;53.470;9.832;2023-08-17T02:57:47;5.68;;;2.90;;
8100;SDS011;4093;53.470;9.832;2023-08-17T03:00:14;6.03;;;2.70;;
8100;SDS011;4093;53.470;9.832;2023-08-17T03:02:43;5.28;;;2.50;;
8100;SDS011;4093;53.470;9.832;2023-08-17T03:05:11;6.55;;;3.03;;
8100;SDS011;4093;53.470;9.832;2023-08-17T03:07:39;5.85;;;2.70;;
8100;SDS011;4093;53.470;9.832;2023-08-17T03:10:07;6.13;;;2.80;;
8100;SDS011;4093;53.470;9.832;2023-08-17T03:12:35;5.72;;;2.65;;
8100;SDS011;4093;53.470;9.832;2023-08-17T03:15:04;5.88;;;2.60;;
8100;SDS011;4093;53.470;9.832;2023-08-17T03:17:32;4.72;;;2.50;;
8100;SDS011;4093;53.470;9.832;2023-08-17T03:20:01;3.80;;;2.60;;
8100;SDS011;4093;53.470;9.832;2023-08-17T03:22:31;7.78;;;2.83;;
8100;SDS011;4093;53.470;9.832;2023-08-17T03:24:59;3.72;;;2.65;;
8100;SDS011;4093;53.470;9.832;2023-08-17T03:27:26;8.07;;;2.88;;
8100;SDS011;4093;53.470;9.832;2023-08-17T03:29:55;6.13;;;2.28;;
8100;SDS011;4093;53.470;9.832;2023-08-17T03:32:22;4.25;;;2.50;;
8100;SDS011;4093;53.470;9.832;2023-08-17T03:34:50;6.45;;;2.90;;
8100;SDS011;4093;53.470;9.832;2023-08-17T03:37:19;4.90;;;2.67;;
8100;SDS011;4093;53.470;9.832;2023-08-17T03:39:47;5.82;;;2.75;;
8100;SDS011;4093;53.470;9.832;2023-08-17T03:42:14;6.22;;;2.45;;
8100;SDS011;4093;53.470;9.832;2023-08-17T03:44:42;4.38;;;2.30;;
8100;SDS011;4093;53.470;9.832;2023-08-17T03:47:10;6.00;;;2.65;;
8100;SDS011;4093;53.470;9.832;2023-08-17T03:49:37;6.72;;;2.60;;
8100;SDS011;4093;53.470;9.832;2023-08-17T03:52:05;11.68;;;2.90;;
8100;SDS011;4093;53.470;9.832;2023-08-17T03:54:35;7.07;;;3.00;;
8100;SDS011;4093;53.470;9.832;2023-08-17T03:57:03;5.65;;;2.83;;
8100;SDS011;4093;53.470;9.832;2023-08-17T03:59:31;7.22;;;3.35;;
8100;SDS011;4093;53.470;9.832;2023-08-17T04:01:58;4.47;;;2.70;;
8100;SDS011;4093;53.470;9.832;2023-08-17T04:04:26;6.47;;;3.05;;
8100;SDS011;4093;53.470;9.832;2023-08-17T04:06:54;4.45;;;2.65;;
8100;SDS011;4093;53.470;9.832;2023-08-17T04:09:22;5.90;;;2.60;;
8100;SDS011;4093;53.470;9.832;2023-08-17T04:11:51;4.43;;;2.58;;
8100;SDS011;4093;53.470;9.832;2023-08-17T04:14:21;4.70;;;2.30;;
8100;SDS011;4093;53.470;9.832;2023-08-17T04:16:48;4.75;;;2.47;;
8100;SDS011;4093;53.470;9.832;2023-08-17T04:19:16;5.60;;;2.75;;
8100;SDS011;4093;53.470;9.832;2023-08-17T04:21:44;4.35;;;2.20;;
8100;SDS011;4093;53.470;9.832;2023-08-17T04:24:11;5.28;;;2.65;;
8100;SDS011;4093;53.470;9.832;2023-08-17T04:26:39;5.38;;;2.28;;
8100;SDS011;4093;53.470;9.832;2023-08-17T04:29:08;2.97;;;2.28;;
8100;SDS011;4093;53.470;9.832;2023-08-17T04:31:36;4.30;;;2.40;;
8100;SDS011;4093;53.470;9.832;2023-08-17T04:34:03;7.05;;;2.63;;
8100;SDS011;4093;53.470;9.832;2023-08-17T04:36:31;6.40;;;2.63;;
8100;SDS011;4093;53.470;9.832;2023-08-17T04:38:59;4.75;;;2.35;;
8100;SDS011;4093;53.470;9.832;2023-08-17T04:41:27;4.22;;;2.38;;
8100;SDS011;4093;53.470;9.832;2023-08-17T04:43:54;3.80;;;2.22;;
8100;SDS011;4093;53.470;9.832;2023-08-17T04:46:23;4.43;;;2.13;;
8100;SDS011;4093;53.470;9.832;2023-08-17T04:48:51;6.75;;;2.80;;
8100;SDS011;4093;53.470;9.832;2023-08-17T04:51:19;4.35;;;2.45;;
8100;SDS011;4093;53.470;9.832;2023-08-17T04:53:47;3.28;;;2.05;;
8100;SDS011;4093;53.470;9.832;2023-08-17T04:56:15;7.18;;;2.72;;
8100;SDS011;4093;53.470;9.832;2023-08-17T04:58:43;7.45;;;2.60;;
8100;SDS011;4093;53.470;9.832;2023-08-17T05:01:10;5.90;;;2.45;;
8100;SDS011;4093;53.470;9.832;2023-08-17T05:03:40;3.03;;;2.42;;
8100;SDS011;4093;53.470;9.832;2023-08-17T05:06:07;5.32;;;2.70;;
8100;SDS011;4093;53.470;9.832;2023-08-17T05:08:35;5.40;;;2.50;;
8100;SDS011;4093;53.470;9.832;2023-08-17T05:11:03;4.65;;;2.45;;
8100;SDS011;4093;53.470;9.832;2023-08-17T05:13:31;5.03;;;2.85;;
8100;SDS011;4093;53.470;9.832;2023-08-17T05:15:58;5.90;;;2.95;;
8100;SDS011;4093;53.470;9.832;2023-08-17T05:18:26;5.75;;;2.88;;
8100;SDS011;4093;53.470;9.832;2023-08-17T05:20:56;8.60;;;3.38;;
8100;SDS011;4093;53.470;9.832;2023-08-17T05:23:23;6.95;;;3.00;;
8100;SDS011;4093;53.470;9.832;2023-08-17T05:25:51;6.22;;;3.05;;
8100;SDS011;4093;53.470;9.832;2023-08-17T05:28:19;7.80;;;3.33;;
8100;SDS011;4093;53.470;9.832;2023-08-17T05:30:47;5.15;;;2.80;;
8100;SDS011;4093;53.470;9.832;2023-08-17T05:33:15;4.68;;;2.92;;
8100;SDS011;4093;53.470;9.832;2023-08-17T05:35:43;4.82;;;2.80;;
8100;SDS011;4093;53.470;9.832;2023-08-17T05:38:12;4.38;;;2.85;;
8100;SDS011;4093;53.470;9.832;2023-08-17T05:40:40;3.42;;;3.13;;
8100;SDS011;4093;53.470;9.832;2023-08-17T05:43:07;4.95;;;3.30;;
8100;SDS011;4093;53.470;9.832;2023-08-17T05:45:35;6.43;;;2.92;;
8100;SDS011;4093;53.470;9.832;2023-08-17T05:48:03;5.75;;;3.22;;
8100;SDS011;4093;53.470;9.832;2023-08-17T05:50:32;6.43;;;3.25;;
8100;SDS011;4093;53.470;9.832;2023-08-17T05:52:59;6.20;;;3.45;;
8100;SDS011;4093;53.470;9.832;2023-08-17T05:55:28;6.60;;;3.83;;
8100;SDS011;4093;53.470;9.832;2023-08-17T05:57:56;6.43;;;3.70;;
8100;SDS011;4093;53.470;9.832;2023-08-17T06:00:24;8.05;;;3.65;;
8100;SDS011;4093;53.470;9.832;2023-08-17T06:02:52;9.10;;;3.83;;
8100;SDS011;4093;53.470;9.832;2023-08-17T06:05:22;7.03;;;4.07;;
8100;SDS011;4093;53.470;9.832;2023-08-17T06:07:51;10.65;;;4.22;;
8100;SDS011;4093;53.470;9.832;2023-08-17T06:10:19;7.25;;;4.15;;
8100;SDS011;4093;53.470;9.832;2023-08-17T06:12:52;8.60;;;3.83;;
8100;SDS011;4093;53.470;9.832;2023-08-17T06:15:20;7.53;;;4.30;;
8100;SDS011;4093;53.470;9.832;2023-08-17T06:17:48;8.27;;;4.20;;
8100;SDS011;4093;53.470;9.832;2023-08-17T06:20:17;8.27;;;4.43;;
8100;SDS011;4093;53.470;9.832;2023-08-17T06:22:46;8.68;;;4.20;;
8100;SDS011;4093;53.470;9.832;2023-08-17T06:25:14;8.45;;;4.35;;
8100;SDS011;4093;53.470;9.832;2023-08-17T06:27:42;8.15;;;4.47;;
8100;SDS011;4093;53.470;9.832;2023-08-17T06:30:12;10.57;;;4.22;;
8100;SDS011;4093;53.470;9.832;2023-08-17T06:32:40;6.40;;;3.63;;
8100;SDS011;4093;53.470;9.832;2023-08-17T06:35:08;6.65;;;3.78;;
8100;SDS011;4093;53.470;9.832;2023-08-17T06:37:36;9.35;;;4.80;;
8100;SDS011;4093;53.470;9.832;2023-08-17T06:40:04;9.52;;;4.57;;
8100;SDS011;4093;53.470;9.832;2023-08-17T06:42:33;5.93;;;4.20;;
8100;SDS011;4093;53.470;9.832;2023-08-17T06:45:00;7.95;;;3.67;;
8100;SDS011;4093;53.470;9.832;2023-08-17T06:47:30;9.15;;;4.22;;
8100;SDS011;4093;53.470;9.832;2023-08-17T06:49:58;5.88;;;3.88;;
8100;SDS011;4093;53.470;9.832;2023-08-17T06:52:26;6.43;;;4.30;;
8100;SDS011;4093;53.470;9.832;2023-08-17T06:54:53;10.05;;;4.65;;
8100;SDS011;4093;53.470;9.832;2023-08-17T06:57:21;8.88;;;4.70;;
8100;SDS011;4093;53.470;9.832;2023-08-17T06:59:49;9.10;;;4.60;;
8100;SDS011;4093;53.470;9.832;2023-08-17T07:02:17;8.00;;;5.07;;
8100;SDS011;4093;53.470;9.832;2023-08-17T07:04:46;6.57;;;4.90;;
8100;SDS011;4093;53.470;9.832;2023-08-17T07:07:14;7.35;;;5.13;;
8100;SDS011;4093;53.470;9.832;2023-08-17T07:09:41;7.82;;;4.50;;
8100;SDS011;4093;53.470;9.832;2023-08-17T07:12:09;6.28;;;4.20;;
8100;SDS011;4093;53.470;9.832;2023-08-17T07:14:37;6.40;;;4.18;;
8100;SDS011;4093;53.470;9.832;2023-08-17T07:17:04;6.60;;;3.90;;
8100;SDS011;4093;53.470;9.832;2023-08-17T07:19:32;6.40;;;3.88;;
8100;SDS011;4093;53.470;9.832;2023-08-17T07:22:22;7.07;;;4.20;;
8100;SDS011;4093;53.470;9.832;2023-08-17T07:24:49;6.15;;;4.20;;
8100;SDS011;4093;53.470;9.832;2023-08-17T07:27:17;6.47;;;4.53;;
8100;SDS011;4093;53.470;9.832;2023-08-17T07:29:45;8.85;;;4.60;;
8100;SDS011;4093;53.470;9.832;2023-08-17T07:32:12;7.70;;;4.32;;
8100;SDS011;4093;53.470;9.832;2023-08-17T07:34:40;6.63;;;4.18;;
8100;SDS011;4093;53.470;9.832;2023-08-17T07:37:08;6.50;;;4.05;;
8100;SDS011;4093;53.470;9.832;2023-08-17T07:39:37;6.50;;;3.97;;
8100;SDS011;4093;53.470;9.832;2023-08-17T07:42:04;5.72;;;4.50;;
8100;SDS011;4093;53.470;9.832;2023-08-17T07:44:32;5.32;;;3.90;;
8100;SDS011;4093;53.470;9.832;2023-08-17T07:47:01;4.20;;;3.80;;
8100;SDS011;4093;53.470;9.832;2023-08-17T07:49:29;5.45;;;3.33;;
8100;SDS011;4093;53.470;9.832;2023-08-17T07:51:58;3.75;;;3.03;;
8100;SDS011;4093;53.470;9.832;2023-08-17T07:54:26;4.97;;;2.90;;
8100;SDS011;4093;53.470;9.832;2023-08-17T07:56:56;4.85;;;2.88;;
8100;SDS011;4093;53.470;9.832;2023-08-17T07:59:24;3.15;;;2.60;;
8100;SDS011;4093;53.470;9.832;2023-08-17T08:01:52;3.67;;;2.70;;
8100;SDS011;4093;53.470;9.832;2023-08-17T08:04:20;3.22;;;2.70;;
8100;SDS011;4093;53.470;9.832;2023-08-17T08:06:47;3.30;;;2.67;;
8100;SDS011;4093;53.470;9.832;2023-08-17T08:09:15;3.30;;;2.80;;
8100;SDS011;4093;53.470;9.832;2023-08-17T08:11:43;4.95;;;3.13;;
8100;SDS011;4093;53.470;9.832;2023-08-17T08:14:12;3.38;;;2.88;;
8100;SDS011;4093;53.470;9.832;2023-08-17T08:16:40;3.70;;;2.95;;
8100;SDS011;4093;53.470;9.832;2023-08-17T08:19:08;5.43;;;2.90;;
8100;SDS011;4093;53.470;9.832;2023-08-17T08:21:37;4.40;;;3.13;;
8100;SDS011;4093;53.470;9.832;2023-08-17T08:24:06;5.88;;;2.95;;
8100;SDS011;4093;53.470;9.832;2023-08-17T08:26:43;3.05;;;2.85;;
8100;SDS011;4093;53.470;9.832;2023-08-17T08:29:12;4.03;;;3.10;;
8100;SDS011;4093;53.470;9.832;2023-08-17T08:31:40;4.05;;;2.90;;
8100;SDS011;4093;53.470;9.832;2023-08-17T08:34:08;5.03;;;3.08;;
8100;SDS011;4093;53.470;9.832;2023-08-17T08:36:37;3.80;;;3.05;;
8100;SDS011;4093;53.470;9.832;2023-08-17T08:39:05;3.30;;;2.90;;
8100;SDS011;4093;53.470;9.832;2023-08-17T08:41:33;4.90;;;3.15;;
8100;SDS011;4093;53.470;9.832;2023-08-17T08:44:01;6.25;;;3.60;;
8100;SDS011;4093;53.470;9.832;2023-08-17T08:46:30;6.15;;;2.92;;
8100;SDS011;4093;53.470;9.832;2023-08-17T08:49:00;4.38;;;2.90;;
8100;SDS011;4093;53.470;9.832;2023-08-17T08:51:30;3.85;;;3.30;;
8100;SDS011;4093;53.470;9.832;2023-08-17T08:54:02;5.97;;;3.17;;
8100;SDS011;4093;53.470;9.832;2023-08-17T08:56:35;3.40;;;3.08;;
8100;SDS011;4093;53.470;9.832;2023-08-17T08:59:05;3.28;;;2.97;;
8100;SDS011;4093;53.470;9.832;2023-08-17T09:01:34;3.83;;;2.90;;
8100;SDS011;4093;53.470;9.832;2023-08-17T09:04:02;4.13;;;2.72;;
8100;SDS011;4093;53.470;9.832;2023-08-17T09:06:31;5.95;;;3.03;;
8100;SDS011;4093;53.470;9.832;2023-08-17T09:09:00;2.75;;;2.40;;
8100;SDS011;4093;53.470;9.832;2023-08-17T09:11:28;2.70;;;2.50;;
8100;SDS011;4093;53.470;9.832;2023-08-17T09:13:56;2.72;;;2.53;;
8100;SDS011;4093;53.470;9.832;2023-08-17T09:16:24;5.05;;;2.75;;
8100;SDS011;4093;53.470;9.832;2023-08-17T09:18:53;3.63;;;2.70;;
8100;SDS011;4093;53.470;9.832;2023-08-17T09:21:21;4.20;;;2.75;;
8100;SDS011;4093;53.470;9.832;2023-08-17T09:23:50;4.47;;;2.78;;
8100;SDS011;4093;53.470;9.832;2023-08-17T09:26:25;2.63;;;2.40;;
8100;SDS011;4093;53.470;9.832;2023-08-17T09:28:52;5.15;;;2.75;;
8100;SDS011;4093;53.470;9.832;2023-08-17T09:31:23;2.88;;;2.67;;
8100;SDS011;4093;53.470;9.832;2023-08-17T09:33:51;3.13;;;2.80;;
8100;SDS011;4093;53.470;9.832;2023-08-17T09:36:24;4.80;;;2.72;;
8100;SDS011;4093;53.470;9.832;2023-08-17T09:38:53;5.30;;;3.00;;
8100;SDS011;4093;53.470;9.832;2023-08-17T09:41:22;3.00;;;2.70;;
8100;SDS011;4093;53.470;9.832;2023-08-17T09:43:54;3.47;;;2.53;;
8100;SDS011;4093;53.470;9.832;2023-08-17T09:46:22;4.05;;;2.42;;
8100;SDS011;4093;53.470;9.832;2023-08-17T09:48:50;4.13;;;3.08;;
8100;SDS011;4093;53.470;9.832;2023-08-17T09:51:18;2.70;;;2.50;;
8100;SDS011;4093;53.470;9.832;2023-08-17T09:53:51;4.03;;;2.65;;
8100;SDS011;4093;53.470;9.832;2023-08-17T09:56:25;2.80;;;2.50;;
8100;SDS011;4093;53.470;9.832;2023-08-17T09:58:54;2.95;;;2.60;;
8100;SDS011;4093;53.470;9.832;2023-08-17T10:01:22;3.15;;;2.55;;
8100;SDS011;4093;53.470;9.832;2023-08-17T10:03:51;4.53;;;2.65;;
8100;SDS011;4093;53.470;9.832;2023-08-17T10:06:24;2.72;;;2.50;;
8100;SDS011;4093;53.470;9.832;2023-08-17T10:08:54;3.70;;;2.50;;
8100;SDS011;4093;53.470;9.832;2023-08-17T10:11:25;3.63;;;2.80;;
8100;SDS011;4093;53.470;9.832;2023-08-17T10:13:59;5.10;;;2.83;;
8100;SDS011;4093;53.470;9.832;2023-08-17T10:16:38;2.92;;;2.63;;
8100;SDS011;4093;53.470;9.832;2023-08-17T10:19:13;4.55;;;2.85;;
8100;SDS011;4093;53.470;9.832;2023-08-17T10:21:53;3.10;;;2.80;;
8100;SDS011;4093;53.470;9.832;2023-08-17T10:24:25;4.15;;;2.60;;
8100;SDS011;4093;53.470;9.832;2023-08-17T10:26:53;3.85;;;2.95;;
8100;SDS011;4093;53.470;9.832;2023-08-17T10:29:22;4.72;;;2.72;;
8100;SDS011;4093;53.470;9.832;2023-08-17T10:31:50;3.90;;;3.00;;
8100;SDS011;4093;53.470;9.832;2023-08-17T10:34:18;3.47;;;2.65;;
8100;SDS011;4093;53.470;9.832;2023-08-17T10:36:46;3.65;;;2.55;;
8100;SDS011;4093;53.470;9.832;2023-08-17T10:39:18;3.72;;;2.60;;
8100;SDS011;4093;53.470;9.832;2023-08-17T10:41:52;4.18;;;2.80;;
8100;SDS011;4093;53.470;9.832;2023-08-17T10:44:40;3.03;;;2.70;;
8100;SDS011;4093;53.470;9.832;2023-08-17T10:47:18;4.95;;;2.60;;
8100;SDS011;4093;53.470;9.832;2023-08-17T10:49:50;2.53;;;2.30;;
8100;SDS011;4093;53.470;9.832;2023-08-17T10:52:29;3.40;;;2.95;;
8100;SDS011;4093;53.470;9.832;2023-08-17T10:54:59;3.28;;;2.92;;
8100;SDS011;4093;53.470;9.832;2023-08-17T10:57:29;2.83;;;2.53;;
8100;SDS011;4093;53.470;9.832;2023-08-17T11:00:05;3.10;;;2.75;;
8100;SDS011;4093;53.470;9.832;2023-08-17T11:02:51;2.88;;;2.50;;
8100;SDS011;4093;53.470;9.832;2023-08-17T11:05:39;4.63;;;2.72;;
8100;SDS011;4093;53.470;9.832;2023-08-17T11:08:09;3.33;;;2.85;;
8100;SDS011;4093;53.470;9.832;2023-08-17T11:10:40;3.88;;;3.08;;
8100;SDS011;4093;53.470;9.832;2023-08-17T11:13:14;3.35;;;3.05;;
8100;SDS011;4093;53.470;9.832;2023-08-17T11:15:42;3.50;;;3.03;;
8100;SDS011;4093;53.470;9.832;2023-08-17T11:18:11;3.43;;;3.13;;
8100;SDS011;4093;53.470;9.832;2023-08-17T11:20:40;4.10;;;3.70;;
8100;SDS011;4093;53.470;9.832;2023-08-17T11:23:09;4.38;;;3.53;;
8100;SDS011;4093;53.470;9.832;2023-08-17T11:25:37;4.27;;;3.83;;
8100;SDS011;4093;53.470;9.832;2023-08-17T11:28:06;4.60;;;2.95;;
8100;SDS011;4093;53.470;9.832;2023-08-17T11:30:36;2.92;;;2.70;;
8100;SDS011;4093;53.470;9.832;2023-08-17T11:33:05;2.90;;;2.65;;
8100;SDS011;4093;53.470;9.832;2023-08-17T11:35:33;4.97;;;3.60;;
8100;SDS011;4093;53.470;9.832;2023-08-17T11:38:01;3.63;;;3.20;;
8100;SDS011;4093;53.470;9.832;2023-08-17T11:40:34;3.42;;;3.13;;
8100;SDS011;4093;53.470;9.832;2023-08-17T11:43:03;4.57;;;3.73;;
8100;SDS011;4093;53.470;9.832;2023-08-17T11:45:31;4.30;;;3.90;;
8100;SDS011;4093;53.470;9.832;2023-08-17T11:48:02;4.07;;;3.67;;
8100;SDS011;4093;53.470;9.832;2023-08-17T11:50:31;4.07;;;3.77;;
8100;SDS011;4093;53.470;9.832;2023-08-17T11:52:59;5.50;;;5.00;;
8100;SDS011;4093;53.470;9.832;2023-08-17T11:55:27;5.13;;;4.63;;
8100;SDS011;4093;53.470;9.832;2023-08-17T11:57:55;5.25;;;4.75;;
8100;SDS011;4093;53.470;9.832;2023-08-17T12:00:23;5.07;;;4.55;;
8100;SDS011;4093;53.470;9.832;2023-08-17T12:02:52;4.13;;;3.70;;
8100;SDS011;4093;53.470;9.832;2023-08-17T12:05:22;4.50;;;4.10;;
8100;SDS011;4093;53.470;9.832;2023-08-17T12:07:52;4.32;;;3.92;;
8100;SDS011;4093;53.470;9.832;2023-08-17T12:10:21;4.20;;;3.80;;
8100;SDS011;4093;53.470;9.832;2023-08-17T12:12:49;4.43;;;3.90;;
8100;SDS011;4093;53.470;9.832;2023-08-17T12:15:17;3.83;;;3.53;;
8100;SDS011;4093;53.470;9.832;2023-08-17T12:17:46;4.28;;;3.53;;
8100;SDS011;4093;53.470;9.832;2023-08-17T12:20:15;4.00;;;3.63;;
8100;SDS011;4093;53.470;9.832;2023-08-17T12:22:46;3.60;;;3.25;;
8100;SDS011;4093;53.470;9.832;2023-08-17T12:25:14;3.50;;;3.20;;
8100;SDS011;4093;53.470;9.832;2023-08-17T12:27:42;3.42;;;3.05;;
8100;SDS011;4093;53.470;9.832;2023-08-17T12:30:13;3.97;;;3.25;;
8100;SDS011;4093;53.470;9.832;2023-08-17T12:32:50;3.42;;;3.13;;
8100;SDS011;4093;53.470;9.832;2023-08-17T12:35:21;5.38;;;3.65;;
8100;SDS011;4093;53.470;9.832;2023-08-17T12:37:52;3.88;;;3.20;;
8100;SDS011;4093;53.470;9.832;2023-08-17T12:40:21;4.93;;;3.30;;
8100;SDS011;4093;53.470;9.832;2023-08-17T12:42:49;4.07;;;2.70;;
8100;SDS011;4093;53.470;9.832;2023-08-17T12:45:17;2.47;;;2.28;;
8100;SDS011;4093;53.470;9.832;2023-08-17T12:47:44;2.53;;;2.17;;
8100;SDS011;4093;53.470;9.832;2023-08-17T12:50:12;3.28;;;2.50;;
8100;SDS011;4093;53.470;9.832;2023-08-17T12:52:40;3.80;;;2.30;;
8100;SDS011;4093;53.470;9.832;2023-08-17T12:55:14;3.13;;;2.83;;
8100;SDS011;4093;53.470;9.832;2023-08-17T12:57:41;2.90;;;2.50;;
8100;SDS011;4093;53.470;9.832;2023-08-17T13:00:09;4.70;;;2.80;;
8100;SDS011;4093;53.470;9.832;2023-08-17T13:02:38;4.28;;;3.47;;
8100;SDS011;4093;53.470;9.832;2023-08-17T13:05:06;3.97;;;3.40;;
8100;SDS011;4093;53.470;9.832;2023-08-17T13:07:34;4.10;;;3.65;;
8100;SDS011;4093;53.470;9.832;2023-08-17T13:10:02;4.43;;;3.97;;
8100;SDS011;4093;53.470;9.832;2023-08-17T13:12:31;3.92;;;3.58;;
8100;SDS011;4093;53.470;9.832;2023-08-17T13:14:58;5.00;;;3.70;;
8100;SDS011;4093;53.470;9.832;2023-08-17T13:17:26;3.58;;;3.30;;
8100;SDS011;4093;53.470;9.832;2023-08-17T13:19:54;3.40;;;2.90;;
8100;SDS011;4093;53.470;9.832;2023-08-17T13:22:22;3.78;;;3.17;;
8100;SDS011;4093;53.470;9.832;2023-08-17T13:24:50;3.30;;;3.00;;
8100;SDS011;4093;53.470;9.832;2023-08-17T13:27:17;2.67;;;2.47;;
8100;SDS011;4093;53.470;9.832;2023-08-17T13:29:46;3.67;;;2.05;;
8100;SDS011;4093;53.470;9.832;2023-08-17T13:32:14;2.97;;;2.10;;
8100;SDS011;4093;53.470;9.832;2023-08-17T13:34:42;3.60;;;1.73;;
8100;SDS011;4093;53.470;9.832;2023-08-17T13:37:10;2.88;;;2.00;;
8100;SDS011;4093;53.470;9.832;2023-08-17T13:39:38;2.33;;;2.00;;
8100;SDS011;4093;53.470;9.832;2023-08-17T13:42:05;4.03;;;2.13;;
8100;SDS011;4093;53.470;9.832;2023-08-17T13:44:33;4.50;;;2.30;;
8100;SDS011;4093;53.470;9.832;2023-08-17T13:47:02;1.75;;;1.65;;
8100;SDS011;4093;53.470;9.832;2023-08-17T13:49:30;2.15;;;1.70;;
8100;SDS011;4093;53.470;9.832;2023-08-17T13:51:58;2.53;;;1.80;;
8100;SDS011;4093;53.470;9.832;2023-08-17T13:54:25;1.80;;;1.70;;
8100;SDS011;4093;53.470;9.832;2023-08-17T13:56:54;1.98;;;1.88;;
8100;SDS011;4093;53.470;9.832;2023-08-17T13:59:22;3.75;;;1.85;;
8100;SDS011;4093;53.470;9.832;2023-08-17T14:01:50;4.53;;;1.70;;
8100;SDS011;4093;53.470;9.832;2023-08-17T14:04:19;2.15;;;1.63;;
8100;SDS011;4093;53.470;9.832;2023-08-17T14:06:47;1.80;;;1.70;;
8100;SDS011;4093;53.470;9.832;2023-08-17T14:09:14;1.85;;;1.75;;
8100;SDS011;4093;53.470;9.832;2023-08-17T14:11:43;2.05;;;1.50;;
8100;SDS011;4093;53.470;9.832;2023-08-17T14:14:10;2.13;;;1.92;;
8100;SDS011;4093;53.470;9.832;2023-08-17T14:16:38;1.60;;;1.50;;
8100;SDS011;4093;53.470;9.832;2023-08-17T14:19:06;2.17;;;1.80;;
8100;SDS011;4093;53.470;9.832;2023-08-17T14:21:35;2.05;;;1.80;;
8100;SDS011;4093;53.470;9.832;2023-08-17T14:24:03;2.55;;;1.83;;
8100;SDS011;4093;53.470;9.832;2023-08-17T14:26:32;2.28;;;1.75;;
8100;SDS011;4093;53.470;9.832;2023-08-17T14:29:00;2.75;;;1.90;;
8100;SDS011;4093;53.470;9.832;2023-08-17T14:31:28;3.17;;;2.03;;
8100;SDS011;4093;53.470;9.832;2023-08-17T14:33:56;2.22;;;2.00;;
8100;SDS011;4093;53.470;9.832;2023-08-17T14:36:23;2.03;;;1.83;;
8100;SDS011;4093;53.470;9.832;2023-08-17T14:38:52;4.07;;;2.10;;
8100;SDS011;4093;53.470;9.832;2023-08-17T14:41:20;1.80;;;1.70;;
8100;SDS011;4093;53.470;9.832;2023-08-17T14:43:48;1.85;;;1.75;;
8100;SDS011;4093;53.470;9.832;2023-08-17T14:46:15;4.10;;;2.10;;
8100;SDS011;4093;53.470;9.832;2023-08-17T14:48:43;1.92;;;1.83;;
8100;SDS011;4093;53.470;9.832;2023-08-17T14:51:11;2.10;;;1.85;;
8100;SDS011;4093;53.470;9.832;2023-08-17T14:53:39;1.80;;;1.70;;
8100;SDS011;4093;53.470;9.832;2023-08-17T14:56:08;4.13;;;2.33;;
8100;SDS011;4093;53.470;9.832;2023-08-17T14:58:35;3.40;;;2.25;;
8100;SDS011;4093;53.470;9.832;2023-08-17T15:01:03;2.60;;;2.10;;
8100;SDS011;4093;53.470;9.832;2023-08-17T15:03:31;2.90;;;2.10;;
8100;SDS011;4093;53.470;9.832;2023-08-17T15:05:59;2.78;;;2.13;;
8100;SDS011;4093;53.470;9.832;2023-08-17T15:08:26;2.83;;;2.20;;
8100;SDS011;4093;53.470;9.832;2023-08-17T15:10:54;4.93;;;2.45;;
8100;SDS011;4093;53.470;9.832;2023-08-17T15:13:29;2.72;;;1.95;;
8100;SDS011;4093;53.470;9.832;2023-08-17T15:15:57;3.70;;;2.10;;
8100;SDS011;4093;53.470;9.832;2023-08-17T15:18:25;2.67;;;2.17;;
8100;SDS011;4093;53.470;9.832;2023-08-17T15:20:53;4.10;;;2.60;;
8100;SDS011;4093;53.470;9.832;2023-08-17T15:23:20;3.47;;;2.47;;
8100;SDS011;4093;53.470;9.832;2023-08-17T15:25:48;3.03;;;2.67;;